Terminal Aerodrome Forecast
Issued by NWS Louisville, KY

Home | Current Version | Previous Version | Text Only | Print | Product List | Glossary On
Versions: 1 2 3 4 5 6 7 8 9 10 11 12
000
FTUS43 KLMK 250500
TAFSDF
TAF
KSDF 250529Z 2506/2612 17004KT P6SM SCT150
     FM251400 22007KT P6SM BKN035
     FM252000 28009KT P6SM SCT035
     FM260000 33004KT P6SM SKC=

USA.gov is the U.S. government's official web portal to all federal, state and local government web resources and services.